Sharm el Sheikh, Egypt
Current Conditions -  °F | °C
As of 6:00 PM on Monday 26 Jan 2015 (Local Time) from HESH Reporting Station
Clear Clear  
Wind Chill: 24°   Ceiling: Unl
Heat Index: 24°   Visibility: 5mi
Dew Point: 20°   Wind: 7mph
Humidity: 78%   Direction: 10°N
Pressure: 30"   Gusts: NA
Location:  27.98°N, 34.39°E
Report Text: HESH 261600Z 01006KT 8000 NSC 24/20 Q1016 NOSIG
Loading
Personal Weather Stations






























Interactive Weather Map New forecast layout! Learn more

10-Day Weather Forecast

Advertisements
Track Severe Weather on mobile